< Typhoon 199708 1997 Season Typhoon 199710 >
Typhoon 199709 (ROSIE)
General InformationTrack Information on Google MapsDetailed Wind InformationList of All Images || NewsDisaster Info.ResourceGoogle EarthGE AnimationAtom FeedGeoJSON
Detalied Best Track (Time Zone = UTC)
Year Month Day Hour Lat. Long. Pressure (hPa) Wind (kt) Class Image Chart
1997 7 18 06 10.1 138.2 1004 0 2 Image Chart
1997 7 18 12 10.4 138.1 1004 0 2 Image Chart
1997 7 18 18 10.7 138.0 1002 0 2 Image Chart
1997 7 19 00 11.1 137.8 1002 0 2 Image Chart
1997 7 19 06 11.7 137.7 1000 0 2 Image Chart
1997 7 19 12 12.3 137.5 998 0 2 Image Chart
1997 7 19 18 12.8 137.2 998 0 2 Image Chart
1997 7 20 00 13.3 136.9 996 35 3 Image Chart
1997 7 20 06 13.9 136.5 992 40 3 Image Chart
1997 7 20 12 14.4 135.9 985 50 4 Image Chart
1997 7 20 18 14.8 135.4 980 55 4 Image Chart
1997 7 21 00 15.3 134.8 975 60 4 Image Chart
1997 7 21 06 15.8 134.2 975 60 4 Image Chart
1997 7 21 12 16.4 133.5 970 65 5 Image Chart
1997 7 21 18 16.9 133.1 965 70 5 Image Chart
1997 7 22 00 17.5 132.6 955 75 5 Image Chart
1997 7 22 06 17.8 132.3 945 80 5 Image Chart
1997 7 22 12 18.2 132.1 935 90 5 Image Chart
1997 7 22 18 18.6 132.0 925 95 5 Image Chart
1997 7 23 00 19.1 131.9 920 100 5 Image Chart
1997 7 23 06 19.8 131.9 920 100 5 Image Chart
1997 7 23 12 20.5 132.0 920 100 5 Image Chart
1997 7 23 18 21.4 132.2 920 100 5 Image Chart
1997 7 24 00 22.4 132.6 925 95 5 Image Chart
1997 7 24 03 22.9 132.7 925 95 5 Image Chart
1997 7 24 06 23.5 132.8 930 90 5 Image Chart
1997 7 24 09 24.0 133.0 930 90 5 Image Chart
1997 7 24 12 24.5 133.2 935 90 5 Image Chart
1997 7 24 15 25.1 133.5 935 90 5 Image Chart
1997 7 24 18 25.9 133.7 940 85 5 Image Chart
1997 7 24 21 26.4 133.7 940 85 5 Image Chart
1997 7 25 00 26.9 133.7 940 85 5 Image Chart
1997 7 25 03 27.6 133.8 940 85 5 Image Chart
1997 7 25 06 28.3 134.0 945 80 5 Image Chart
1997 7 25 09 28.9 134.3 945 80 5 Image Chart
1997 7 25 12 29.4 134.7 950 80 5 Image Chart
1997 7 25 15 30.0 134.9 950 80 5 Image Chart
1997 7 25 18 30.7 135.1 955 75 5 Image Chart
1997 7 25 21 31.4 135.2 955 75 5 Image Chart
1997 7 26 00 32.1 135.1 960 75 5 Image Chart
1997 7 26 03 32.6 134.8 960 75 5 Image Chart
1997 7 26 06 33.2 134.7 965 75 5 Image Chart
1997 7 26 08 33.7 134.7 970 70 5 Image Chart
1997 7 26 09 34.0 134.6 970 70 5 Image Chart
1997 7 26 11 34.6 134.4 975 70 5 Image Chart
1997 7 26 12 34.8 134.2 980 60 4 Image Chart
1997 7 26 15 35.2 133.1 985 50 4 Image Chart
1997 7 26 18 35.5 132.6 985 50 4 Image Chart
1997 7 26 21 35.6 132.4 985 50 4 Image Chart
1997 7 27 00 35.7 132.3 990 45 3 Image Chart
1997 7 27 03 35.7 132.4 990 45 3 Image Chart
1997 7 27 06 35.8 132.6 992 45 3 Image Chart
1997 7 27 09 35.8 132.7 992 45 3 Image Chart
1997 7 27 12 35.8 132.9 994 40 3 Image Chart
1997 7 27 15 35.8 133.1 994 40 3 Image Chart
1997 7 27 18 35.8 133.2 996 35 3 Image Chart
1997 7 27 21 35.8 133.5 998 0 2 Image Chart
1997 7 28 00 35.8 133.8 1000 0 2 Image Chart
1997 7 28 06 35.8 135.7 1002 0 2 Image Chart
1997 7 28 12 35.7 136.5 1002 0 2 Image Chart
1997 7 28 18 34.9 136.8 1002 0 2 Image Chart
1997 7 29 00 34.1 137.5 1002 0 2 Image Chart
1997 7 29 06 34.0 138.0 1002 0 2 Image Chart
1997 7 29 12 33.6 138.1 1002 0 2 Image Chart
1997 7 29 18 33.2 138.2 1002 0 2 Image Chart
1997 7 30 00 32.9 138.2 1004 0 2 Image Chart
1997 7 30 06 32.4 137.9 1004 0 2 Image Chart
1997 7 30 12 32.1 137.6 1006 0 2 Image Chart
1997 7 30 18 31.9 137.1 1006 0 2 Image Chart
1997 7 31 00 31.9 136.6 1006 0 2 Image Chart
1997 7 31 06 31.8 136.2 1006 0 2 Image Chart
Japan Meteorological Agency Best Track Data | Correction Date : 1998-01-19
< Typhoon 199708 1997 Season Typhoon 199710 >

Help